Poe, Indiana
Current Conditions -  °F | °C
As of 3:54 PM on Thursday 18 Dec 2014 (Local Time) from KFWA Reporting Station
Overcast Overcast  
Wind Chill: 19°   Ceiling: 1500
Heat Index: 28°   Visibility: 7mi
Dew Point: 22°   Wind: 9mph
Humidity: 78%   Direction: 260°W
Pressure: 30.22"   Gusts: NA
Location:  40.9649°N, 85.1332°W
Report Text: KFWA 182054Z 26008KT 7SM OVC015 M02/M06 A3022 RMK AO2 SLP242 60000 T10221056 55008
Loading
Personal Weather Stations






























Interactive Weather Map New forecast layout! Learn more

10-Day Weather Forecast

Advertisements
Track Severe Weather on mobile